GDN weather

Gdańsk Lech Wałęsa Airport
Gdańsk, Pomerania, Poland

Public forecast

Using degrees Celsius for public forecast. Weather courtesy of forecast.io.

METAR (pilot weather report)

Retrieved 2019/03/23 10:00 UTC (8 minutes ago):

EPGD 231000Z 22010KT CAVOK 13/07 Q1023

TAF (pilot weather forecast)

Retrieved 2019/03/23 06:33 UTC (4 hours ago):

TAF TAF EPGD 230530Z 2306/2406 22010KT 9999 BKN012 PROB40 2306/2309 4000 BR BKN004 BECMG 2309/2312 29012KT SCT020